sensor_id;sensor_type;location;lat;lon;timestamp;temperature;humidity
43894;DHT22;29556;50.846;4.442;2022-11-28T00:02:06;11.30;85.50
43894;DHT22;29556;50.846;4.442;2022-11-28T00:04:32;11.20;84.90
43894;DHT22;29556;50.846;4.442;2022-11-28T00:06:57;11.20;84.00
43894;DHT22;29556;50.846;4.442;2022-11-28T00:09:24;11.20;84.90
43894;DHT22;29556;50.846;4.442;2022-11-28T00:11:50;11.20;84.70
43894;DHT22;29556;50.846;4.442;2022-11-28T00:14:18;11.20;85.10
43894;DHT22;29556;50.846;4.442;2022-11-28T00:16:50;11.30;85.90
43894;DHT22;29556;50.846;4.442;2022-11-28T00:19:16;11.40;85.70
43894;DHT22;29556;50.846;4.442;2022-11-28T00:21:41;11.20;84.30
43894;DHT22;29556;50.846;4.442;2022-11-28T00:24:13;11.20;84.70
43894;DHT22;29556;50.846;4.442;2022-11-28T00:26:41;11.20;84.80
43894;DHT22;29556;50.846;4.442;2022-11-28T00:29:26;11.00;84.60
43894;DHT22;29556;50.846;4.442;2022-11-28T00:31:53;11.10;85.10
43894;DHT22;29556;50.846;4.442;2022-11-28T00:34:19;11.10;84.10
43894;DHT22;29556;50.846;4.442;2022-11-28T00:36:45;11.10;85.10
43894;DHT22;29556;50.846;4.442;2022-11-28T00:39:12;11.00;85.70
43894;DHT22;29556;50.846;4.442;2022-11-28T00:41:41;11.00;85.50
43894;DHT22;29556;50.846;4.442;2022-11-28T00:44:09;10.90;85.70
43894;DHT22;29556;50.846;4.442;2022-11-28T00:46:42;11.00;86.00
43894;DHT22;29556;50.846;4.442;2022-11-28T00:49:10;11.20;86.40
43894;DHT22;29556;50.846;4.442;2022-11-28T00:51:36;11.00;86.30
43894;DHT22;29556;50.846;4.442;2022-11-28T00:54:04;11.30;86.70
43894;DHT22;29556;50.846;4.442;2022-11-28T00:56:38;11.10;86.70
43894;DHT22;29556;50.846;4.442;2022-11-28T00:59:28;11.10;86.30
43894;DHT22;29556;50.846;4.442;2022-11-28T01:02:14;11.00;86.70
43894;DHT22;29556;50.846;4.442;2022-11-28T01:04:41;11.10;87.00
43894;DHT22;29556;50.846;4.442;2022-11-28T01:07:16;11.10;87.20
43894;DHT22;29556;50.846;4.442;2022-11-28T01:09:42;11.10;87.30
43894;DHT22;29556;50.846;4.442;2022-11-28T01:12:12;11.30;87.40
43894;DHT22;29556;50.846;4.442;2022-11-28T01:15:08;11.30;87.50
43894;DHT22;29556;50.846;4.442;2022-11-28T01:18:00;11.20;87.50
43894;DHT22;29556;50.846;4.442;2022-11-28T01:20:52;11.20;87.70
43894;DHT22;29556;50.846;4.442;2022-11-28T01:23:21;11.00;87.90
43894;DHT22;29556;50.846;4.442;2022-11-28T01:26:20;11.00;87.80
43894;DHT22;29556;50.846;4.442;2022-11-28T01:28:47;10.90;88.20
43894;DHT22;29556;50.846;4.442;2022-11-28T01:31:35;11.00;88.40
43894;DHT22;29556;50.846;4.442;2022-11-28T01:34:12;11.10;88.50
43894;DHT22;29556;50.846;4.442;2022-11-28T01:36:48;11.10;88.50
43894;DHT22;29556;50.846;4.442;2022-11-28T01:39:19;11.10;88.90
43894;DHT22;29556;50.846;4.442;2022-11-28T01:41:46;11.00;88.90
43894;DHT22;29556;50.846;4.442;2022-11-28T01:46:40;10.90;89.20
43894;DHT22;29556;50.846;4.442;2022-11-28T01:49:12;10.90;89.40
43894;DHT22;29556;50.846;4.442;2022-11-28T01:51:41;11.10;89.60
43894;DHT22;29556;50.846;4.442;2022-11-28T01:54:13;10.90;89.70
43894;DHT22;29556;50.846;4.442;2022-11-28T01:57:02;11.00;89.90
43894;DHT22;29556;50.846;4.442;2022-11-28T01:59:36;10.90;90.00
43894;DHT22;29556;50.846;4.442;2022-11-28T02:02:08;10.80;90.10
43894;DHT22;29556;50.846;4.442;2022-11-28T02:04:37;10.80;90.20
43894;DHT22;29556;50.846;4.442;2022-11-28T02:07:03;10.70;90.40
43894;DHT22;29556;50.846;4.442;2022-11-28T02:09:29;10.70;90.60
43894;DHT22;29556;50.846;4.442;2022-11-28T02:12:22;10.70;90.90
43894;DHT22;29556;50.846;4.442;2022-11-28T02:33:29;10.70;90.90
43894;DHT22;29556;50.846;4.442;2022-11-28T02:35:58;10.80;90.90
43894;DHT22;29556;50.846;4.442;2022-11-28T02:38:38;10.80;90.90
43894;DHT22;29556;50.846;4.442;2022-11-28T02:41:19;10.80;91.00
43894;DHT22;29556;50.846;4.442;2022-11-28T02:44:17;10.70;91.00
43894;DHT22;29556;50.846;4.442;2022-11-28T02:49:48;10.60;91.20
43894;DHT22;29556;50.846;4.442;2022-11-28T02:52:20;10.70;91.30
43894;DHT22;29556;50.846;4.442;2022-11-28T02:54:48;10.60;91.30
43894;DHT22;29556;50.846;4.442;2022-11-28T02:57:16;10.60;91.40
43894;DHT22;29556;50.846;4.442;2022-11-28T03:02:17;10.60;91.40
43894;DHT22;29556;50.846;4.442;2022-11-28T03:08:04;10.70;91.30
43894;DHT22;29556;50.846;4.442;2022-11-28T03:16:20;10.60;91.50
43894;DHT22;29556;50.846;4.442;2022-11-28T03:19:09;10.70;91.50
43894;DHT22;29556;50.846;4.442;2022-11-28T03:21:42;10.70;91.50
43894;DHT22;29556;50.846;4.442;2022-11-28T03:24:19;10.70;91.50
43894;DHT22;29556;50.846;4.442;2022-11-28T03:26:55;10.70;91.50
43894;DHT22;29556;50.846;4.442;2022-11-28T03:29:35;10.80;91.40
43894;DHT22;29556;50.846;4.442;2022-11-28T03:32:08;10.70;91.40
43894;DHT22;29556;50.846;4.442;2022-11-28T03:34:41;10.70;91.40
43894;DHT22;29556;50.846;4.442;2022-11-28T03:37:19;10.80;91.40
43894;DHT22;29556;50.846;4.442;2022-11-28T03:39:50;10.80;91.40
43894;DHT22;29556;50.846;4.442;2022-11-28T03:42:24;10.90;91.30
43894;DHT22;29556;50.846;4.442;2022-11-28T03:45:09;10.80;91.40
43894;DHT22;29556;50.846;4.442;2022-11-28T03:47:47;10.80;91.30
43894;DHT22;29556;50.846;4.442;2022-11-28T03:50:33;10.80;91.30
43894;DHT22;29556;50.846;4.442;2022-11-28T03:53:19;10.80;91.40
43894;DHT22;29556;50.846;4.442;2022-11-28T03:56:20;10.90;91.40
43894;DHT22;29556;50.846;4.442;2022-11-28T03:59:07;10.80;91.30
43894;DHT22;29556;50.846;4.442;2022-11-28T04:07:22;10.70;91.40
43894;DHT22;29556;50.846;4.442;2022-11-28T04:10:01;10.70;91.60
43894;DHT22;29556;50.846;4.442;2022-11-28T04:12:49;10.70;91.60
43894;DHT22;29556;50.846;4.442;2022-11-28T04:15:49;10.80;91.50
43894;DHT22;29556;50.846;4.442;2022-11-28T04:18:29;10.80;91.40
43894;DHT22;29556;50.846;4.442;2022-11-28T04:21:05;10.80;91.30
43894;DHT22;29556;50.846;4.442;2022-11-28T04:23:34;10.70;91.50
43894;DHT22;29556;50.846;4.442;2022-11-28T04:26:04;10.80;91.60
43894;DHT22;29556;50.846;4.442;2022-11-28T04:28:33;10.70;91.60
43894;DHT22;29556;50.846;4.442;2022-11-28T04:31:00;10.70;91.60
43894;DHT22;29556;50.846;4.442;2022-11-28T04:33:31;10.80;91.60
43894;DHT22;29556;50.846;4.442;2022-11-28T04:35:58;10.80;91.60
43894;DHT22;29556;50.846;4.442;2022-11-28T04:38:27;10.90;91.60
43894;DHT22;29556;50.846;4.442;2022-11-28T04:41:01;10.90;91.50
43894;DHT22;29556;50.846;4.442;2022-11-28T04:43:36;10.80;91.60
43894;DHT22;29556;50.846;4.442;2022-11-28T04:46:08;10.80;91.60
43894;DHT22;29556;50.846;4.442;2022-11-28T04:48:34;10.70;91.70
43894;DHT22;29556;50.846;4.442;2022-11-28T04:54:27;10.80;91.70
43894;DHT22;29556;50.846;4.442;2022-11-28T04:57:03;10.80;91.70
43894;DHT22;29556;50.846;4.442;2022-11-28T04:59:32;10.90;91.80
43894;DHT22;29556;50.846;4.442;2022-11-28T05:02:05;10.80;91.80
43894;DHT22;29556;50.846;4.442;2022-11-28T05:04:34;10.80;91.80
43894;DHT22;29556;50.846;4.442;2022-11-28T05:07:02;10.70;91.90
43894;DHT22;29556;50.846;4.442;2022-11-28T05:09:29;10.90;91.90
43894;DHT22;29556;50.846;4.442;2022-11-28T05:11:54;10.80;91.90
43894;DHT22;29556;50.846;4.442;2022-11-28T05:14:20;10.90;91.80
43894;DHT22;29556;50.846;4.442;2022-11-28T05:16:47;10.80;91.90
43894;DHT22;29556;50.846;4.442;2022-11-28T05:19:13;10.90;91.90
43894;DHT22;29556;50.846;4.442;2022-11-28T05:21:39;10.90;91.90
43894;DHT22;29556;50.846;4.442;2022-11-28T05:24:05;11.00;91.90
43894;DHT22;29556;50.846;4.442;2022-11-28T05:26:31;11.00;91.80
43894;DHT22;29556;50.846;4.442;2022-11-28T05:29:00;11.10;91.70
43894;DHT22;29556;50.846;4.442;2022-11-28T05:31:25;11.00;91.70
43894;DHT22;29556;50.846;4.442;2022-11-28T05:33:53;11.00;91.70
43894;DHT22;29556;50.846;4.442;2022-11-28T05:36:18;10.90;91.70
43894;DHT22;29556;50.846;4.442;2022-11-28T05:38:44;10.80;91.90
43894;DHT22;29556;50.846;4.442;2022-11-28T05:41:20;11.00;92.00
43894;DHT22;29556;50.846;4.442;2022-11-28T05:43:46;10.90;91.80
43894;DHT22;29556;50.846;4.442;2022-11-28T05:46:11;10.90;91.80
43894;DHT22;29556;50.846;4.442;2022-11-28T05:48:37;10.90;91.80
43894;DHT22;29556;50.846;4.442;2022-11-28T05:51:09;11.00;91.90
43894;DHT22;29556;50.846;4.442;2022-11-28T05:53:36;10.80;91.80
43894;DHT22;29556;50.846;4.442;2022-11-28T05:56:11;10.80;92.00
43894;DHT22;29556;50.846;4.442;2022-11-28T05:58:38;10.90;92.00
43894;DHT22;29556;50.846;4.442;2022-11-28T06:01:28;10.90;91.90
43894;DHT22;29556;50.846;4.442;2022-11-28T06:04:04;10.90;92.00
43894;DHT22;29556;50.846;4.442;2022-11-28T06:06:33;10.90;92.10
43894;DHT22;29556;50.846;4.442;2022-11-28T06:08:59;11.00;92.00
43894;DHT22;29556;50.846;4.442;2022-11-28T06:11:30;11.00;91.80
43894;DHT22;29556;50.846;4.442;2022-11-28T06:14:11;10.90;92.00
43894;DHT22;29556;50.846;4.442;2022-11-28T06:17:07;11.00;92.00
43894;DHT22;29556;50.846;4.442;2022-11-28T06:19:39;11.10;91.90
43894;DHT22;29556;50.846;4.442;2022-11-28T06:22:04;11.10;92.00
43894;DHT22;29556;50.846;4.442;2022-11-28T06:24:36;11.00;91.80
43894;DHT22;29556;50.846;4.442;2022-11-28T06:27:02;11.00;91.90
43894;DHT22;29556;50.846;4.442;2022-11-28T06:29:28;10.90;91.90
43894;DHT22;29556;50.846;4.442;2022-11-28T06:31:53;11.00;92.20
43894;DHT22;29556;50.846;4.442;2022-11-28T06:37:51;10.80;92.20
43894;DHT22;29556;50.846;4.442;2022-11-28T06:40:49;10.80;92.30
43894;DHT22;29556;50.846;4.442;2022-11-28T06:43:24;10.90;92.40
43894;DHT22;29556;50.846;4.442;2022-11-28T06:45:58;10.90;92.30
43894;DHT22;29556;50.846;4.442;2022-11-28T06:48:43;10.90;92.20
43894;DHT22;29556;50.846;4.442;2022-11-28T06:51:12;10.90;92.10
43894;DHT22;29556;50.846;4.442;2022-11-28T06:53:57;10.90;92.30
43894;DHT22;29556;50.846;4.442;2022-11-28T06:56:35;11.10;92.40
43894;DHT22;29556;50.846;4.442;2022-11-28T06:59:02;11.00;92.40
43894;DHT22;29556;50.846;4.442;2022-11-28T07:01:29;11.10;92.30
43894;DHT22;29556;50.846;4.442;2022-11-28T07:03:55;11.10;92.30
43894;DHT22;29556;50.846;4.442;2022-11-28T07:06:25;11.10;92.20
43894;DHT22;29556;50.846;4.442;2022-11-28T07:08:52;11.10;92.00
43894;DHT22;29556;50.846;4.442;2022-11-28T07:11:21;11.10;92.10
43894;DHT22;29556;50.846;4.442;2022-11-28T07:13:49;11.10;92.10
43894;DHT22;29556;50.846;4.442;2022-11-28T07:18:48;11.30;92.10
43894;DHT22;29556;50.846;4.442;2022-11-28T07:21:15;11.30;92.10
43894;DHT22;29556;50.846;4.442;2022-11-28T07:23:42;11.20;92.00
43894;DHT22;29556;50.846;4.442;2022-11-28T07:26:21;11.30;92.10
43894;DHT22;29556;50.846;4.442;2022-11-28T07:28:49;11.10;92.10
43894;DHT22;29556;50.846;4.442;2022-11-28T07:31:21;11.20;92.00
43894;DHT22;29556;50.846;4.442;2022-11-28T07:33:52;11.30;92.10
43894;DHT22;29556;50.846;4.442;2022-11-28T07:36:24;11.40;92.10
43894;DHT22;29556;50.846;4.442;2022-11-28T07:39:12;11.30;92.00
43894;DHT22;29556;50.846;4.442;2022-11-28T07:41:39;11.30;91.90
43894;DHT22;29556;50.846;4.442;2022-11-28T07:44:28;11.40;91.90
43894;DHT22;29556;50.846;4.442;2022-11-28T07:46:55;11.40;91.90
43894;DHT22;29556;50.846;4.442;2022-11-28T07:49:27;11.40;91.90
43894;DHT22;29556;50.846;4.442;2022-11-28T07:51:53;11.40;91.80
43894;DHT22;29556;50.846;4.442;2022-11-28T07:54:28;11.20;91.80
43894;DHT22;29556;50.846;4.442;2022-11-28T07:56:57;11.30;92.10
43894;DHT22;29556;50.846;4.442;2022-11-28T07:59:23;11.20;92.20
43894;DHT22;29556;50.846;4.442;2022-11-28T08:01:49;11.20;92.30
43894;DHT22;29556;50.846;4.442;2022-11-28T08:04:15;11.20;92.40
43894;DHT22;29556;50.846;4.442;2022-11-28T08:06:42;11.10;92.30
43894;DHT22;29556;50.846;4.442;2022-11-28T08:09:09;11.00;92.40
43894;DHT22;29556;50.846;4.442;2022-11-28T08:11:39;11.00;92.50
43894;DHT22;29556;50.846;4.442;2022-11-28T08:14:05;11.10;92.70
43894;DHT22;29556;50.846;4.442;2022-11-28T08:16:31;11.10;92.80
43894;DHT22;29556;50.846;4.442;2022-11-28T08:19:00;11.10;92.80
43894;DHT22;29556;50.846;4.442;2022-11-28T08:21:33;11.20;92.60
43894;DHT22;29556;50.846;4.442;2022-11-28T08:24:08;11.30;92.50
43894;DHT22;29556;50.846;4.442;2022-11-28T08:26:36;11.30;92.50
43894;DHT22;29556;50.846;4.442;2022-11-28T08:29:03;11.30;92.60
43894;DHT22;29556;50.846;4.442;2022-11-28T08:31:31;11.10;92.60
43894;DHT22;29556;50.846;4.442;2022-11-28T08:33:59;11.20;92.60
43894;DHT22;29556;50.846;4.442;2022-11-28T08:36:27;11.10;92.50
43894;DHT22;29556;50.846;4.442;2022-11-28T08:38:53;11.20;92.60
43894;DHT22;29556;50.846;4.442;2022-11-28T08:41:22;11.30;92.50
43894;DHT22;29556;50.846;4.442;2022-11-28T08:43:48;11.30;92.40
43894;DHT22;29556;50.846;4.442;2022-11-28T08:46:16;11.30;92.40
43894;DHT22;29556;50.846;4.442;2022-11-28T08:48:42;11.40;92.40
43894;DHT22;29556;50.846;4.442;2022-11-28T08:51:11;11.50;92.40
43894;DHT22;29556;50.846;4.442;2022-11-28T08:53:39;11.50;92.30
43894;DHT22;29556;50.846;4.442;2022-11-28T08:56:06;11.60;92.10
43894;DHT22;29556;50.846;4.442;2022-11-28T08:58:31;11.50;92.10
43894;DHT22;29556;50.846;4.442;2022-11-28T09:00:57;11.60;92.00
43894;DHT22;29556;50.846;4.442;2022-11-28T09:03:25;11.50;92.10
43894;DHT22;29556;50.846;4.442;2022-11-28T09:05:51;11.50;92.00
43894;DHT22;29556;50.846;4.442;2022-11-28T09:08:22;11.50;92.20
43894;DHT22;29556;50.846;4.442;2022-11-28T09:10:48;11.50;92.10
43894;DHT22;29556;50.846;4.442;2022-11-28T09:13:14;11.40;92.30
43894;DHT22;29556;50.846;4.442;2022-11-28T09:15:42;11.50;92.20
43894;DHT22;29556;50.846;4.442;2022-11-28T09:18:09;11.40;92.20
43894;DHT22;29556;50.846;4.442;2022-11-28T09:20:38;11.50;92.50
43894;DHT22;29556;50.846;4.442;2022-11-28T09:23:05;11.40;92.50
43894;DHT22;29556;50.846;4.442;2022-11-28T09:25:34;11.40;92.30
43894;DHT22;29556;50.846;4.442;2022-11-28T09:28:02;11.40;92.10
43894;DHT22;29556;50.846;4.442;2022-11-28T09:30:28;11.50;92.70
43894;DHT22;29556;50.846;4.442;2022-11-28T09:32:53;11.50;92.20
43894;DHT22;29556;50.846;4.442;2022-11-28T09:38:41;11.70;92.00
43894;DHT22;29556;50.846;4.442;2022-11-28T09:41:38;11.60;91.90
43894;DHT22;29556;50.846;4.442;2022-11-28T09:46:43;11.70;91.90
43894;DHT22;29556;50.846;4.442;2022-11-28T09:50:13;11.80;91.90
43894;DHT22;29556;50.846;4.442;2022-11-28T09:55:03;11.80;91.90
43894;DHT22;29556;50.846;4.442;2022-11-28T09:57:40;11.80;91.90
43894;DHT22;29556;50.846;4.442;2022-11-28T10:00:22;12.10;91.80
43894;DHT22;29556;50.846;4.442;2022-11-28T10:02:58;12.10;91.80
43894;DHT22;29556;50.846;4.442;2022-11-28T10:05:57;12.20;91.60
43894;DHT22;29556;50.846;4.442;2022-11-28T10:08:52;12.10;91.50
43894;DHT22;29556;50.846;4.442;2022-11-28T10:14:05;12.30;91.20
43894;DHT22;29556;50.846;4.442;2022-11-28T10:19:57;12.40;90.90
43894;DHT22;29556;50.846;4.442;2022-11-28T10:22:45;12.40;90.70
43894;DHT22;29556;50.846;4.442;2022-11-28T10:25:21;12.30;90.50
43894;DHT22;29556;50.846;4.442;2022-11-28T10:27:49;12.20;90.70
43894;DHT22;29556;50.846;4.442;2022-11-28T10:30:27;12.20;90.90
43894;DHT22;29556;50.846;4.442;2022-11-28T10:35:37;12.40;90.80
43894;DHT22;29556;50.846;4.442;2022-11-28T10:38:15;12.50;90.70
43894;DHT22;29556;50.846;4.442;2022-11-28T10:43:30;12.30;90.70
43894;DHT22;29556;50.846;4.442;2022-11-28T10:49:19;12.40;90.50
43894;DHT22;29556;50.846;4.442;2022-11-28T10:57:29;12.40;90.20
43894;DHT22;29556;50.846;4.442;2022-11-28T11:02:42;12.40;90.30
43894;DHT22;29556;50.846;4.442;2022-11-28T11:05:21;12.40;90.40
43894;DHT22;29556;50.846;4.442;2022-11-28T11:07:54;12.50;90.30
43894;DHT22;29556;50.846;4.442;2022-11-28T11:10:34;12.50;90.40
43894;DHT22;29556;50.846;4.442;2022-11-28T11:13:14;12.50;90.40
43894;DHT22;29556;50.846;4.442;2022-11-28T11:15:41;12.60;90.40
43894;DHT22;29556;50.846;4.442;2022-11-28T11:21:23;12.60;90.00
43894;DHT22;29556;50.846;4.442;2022-11-28T11:26:42;12.50;90.20
43894;DHT22;29556;50.846;4.442;2022-11-28T11:29:20;12.50;90.30
43894;DHT22;29556;50.846;4.442;2022-11-28T11:31:50;12.50;90.10
43894;DHT22;29556;50.846;4.442;2022-11-28T11:34:18;12.70;90.30
43894;DHT22;29556;50.846;4.442;2022-11-28T11:36:44;12.60;90.20
43894;DHT22;29556;50.846;4.442;2022-11-28T11:39:21;12.80;90.20
43894;DHT22;29556;50.846;4.442;2022-11-28T11:41:50;12.70;90.30
43894;DHT22;29556;50.846;4.442;2022-11-28T11:44:39;12.80;90.10
43894;DHT22;29556;50.846;4.442;2022-11-28T11:47:12;12.80;89.50
43894;DHT22;29556;50.846;4.442;2022-11-28T11:49:49;12.80;88.40
43894;DHT22;29556;50.846;4.442;2022-11-28T11:52:23;12.60;89.10
43894;DHT22;29556;50.846;4.442;2022-11-28T11:57:24;12.60;89.20
43894;DHT22;29556;50.846;4.442;2022-11-28T11:59:56;12.70;89.70
43894;DHT22;29556;50.846;4.442;2022-11-28T12:02:37;12.80;89.70
43894;DHT22;29556;50.846;4.442;2022-11-28T12:05:16;12.80;89.30
43894;DHT22;29556;50.846;4.442;2022-11-28T12:08:02;12.80;89.10
43894;DHT22;29556;50.846;4.442;2022-11-28T12:10:40;12.80;88.90
43894;DHT22;29556;50.846;4.442;2022-11-28T12:13:20;12.80;89.00
43894;DHT22;29556;50.846;4.442;2022-11-28T12:19:07;12.70;88.90
43894;DHT22;29556;50.846;4.442;2022-11-28T12:27:33;12.60;89.50
43894;DHT22;29556;50.846;4.442;2022-11-28T12:35:39;12.60;89.00
43894;DHT22;29556;50.846;4.442;2022-11-28T12:43:18;12.90;88.80
43894;DHT22;29556;50.846;4.442;2022-11-28T12:46:02;13.00;89.00
43894;DHT22;29556;50.846;4.442;2022-11-28T12:51:36;12.80;88.70
43894;DHT22;29556;50.846;4.442;2022-11-28T12:56:51;12.80;88.80
43894;DHT22;29556;50.846;4.442;2022-11-28T13:02:17;12.80;88.80
43894;DHT22;29556;50.846;4.442;2022-11-28T13:10:30;12.90;88.50
43894;DHT22;29556;50.846;4.442;2022-11-28T13:13:09;13.00;88.60
43894;DHT22;29556;50.846;4.442;2022-11-28T13:16:14;13.10;88.80
43894;DHT22;29556;50.846;4.442;2022-11-28T13:18:57;13.00;87.70
43894;DHT22;29556;50.846;4.442;2022-11-28T13:24:46;13.10;88.30
43894;DHT22;29556;50.846;4.442;2022-11-28T13:27:25;13.10;88.10
43894;DHT22;29556;50.846;4.442;2022-11-28T13:32:55;12.90;87.30
43894;DHT22;29556;50.846;4.442;2022-11-28T13:35:27;12.80;87.30
43894;DHT22;29556;50.846;4.442;2022-11-28T13:40:58;12.80;87.80
43894;DHT22;29556;50.846;4.442;2022-11-28T13:46:30;12.80;88.10
43894;DHT22;29556;50.846;4.442;2022-11-28T13:49:08;12.80;88.00
43894;DHT22;29556;50.846;4.442;2022-11-28T13:51:35;12.80;87.60
43894;DHT22;29556;50.846;4.442;2022-11-28T13:59:37;13.00;87.80
43894;DHT22;29556;50.846;4.442;2022-11-28T14:02:18;13.10;87.90
43894;DHT22;29556;50.846;4.442;2022-11-28T14:04:45;13.10;88.30
43894;DHT22;29556;50.846;4.442;2022-11-28T14:07:30;13.00;87.30
43894;DHT22;29556;50.846;4.442;2022-11-28T14:10:27;13.20;87.60
43894;DHT22;29556;50.846;4.442;2022-11-28T14:13:06;13.10;87.20
43894;DHT22;29556;50.846;4.442;2022-11-28T14:16:01;13.00;87.20
43894;DHT22;29556;50.846;4.442;2022-11-28T14:27:49;12.90;87.40
43894;DHT22;29556;50.846;4.442;2022-11-28T14:30:27;12.90;87.30
43894;DHT22;29556;50.846;4.442;2022-11-28T14:32:56;13.00;87.60
43894;DHT22;29556;50.846;4.442;2022-11-28T14:36:00;13.20;87.80
43894;DHT22;29556;50.846;4.442;2022-11-28T14:43:50;13.10;87.70
43894;DHT22;29556;50.846;4.442;2022-11-28T14:52:05;13.10;88.10
43894;DHT22;29556;50.846;4.442;2022-11-28T14:54:31;13.20;88.00
43894;DHT22;29556;50.846;4.442;2022-11-28T14:57:00;13.10;88.00
43894;DHT22;29556;50.846;4.442;2022-11-28T14:59:28;13.20;88.10
43894;DHT22;29556;50.846;4.442;2022-11-28T15:10:06;13.30;88.50
43894;DHT22;29556;50.846;4.442;2022-11-28T15:13:06;13.20;88.40
43894;DHT22;29556;50.846;4.442;2022-11-28T15:15:35;13.20;88.70
43894;DHT22;29556;50.846;4.442;2022-11-28T15:18:02;13.20;88.80
43894;DHT22;29556;50.846;4.442;2022-11-28T15:20:34;13.20;88.80
43894;DHT22;29556;50.846;4.442;2022-11-28T15:23:01;13.20;88.90
43894;DHT22;29556;50.846;4.442;2022-11-28T15:25:30;13.20;89.10
43894;DHT22;29556;50.846;4.442;2022-11-28T15:28:16;13.10;89.00
43894;DHT22;29556;50.846;4.442;2022-11-28T15:30:50;13.10;88.80
43894;DHT22;29556;50.846;4.442;2022-11-28T15:33:17;13.00;88.90
43894;DHT22;29556;50.846;4.442;2022-11-28T15:36:15;13.00;88.90
43894;DHT22;29556;50.846;4.442;2022-11-28T15:38:50;13.00;88.90
43894;DHT22;29556;50.846;4.442;2022-11-28T15:41:20;13.00;90.00
43894;DHT22;29556;50.846;4.442;2022-11-28T15:43:46;12.90;89.00
43894;DHT22;29556;50.846;4.442;2022-11-28T15:46:29;12.90;89.60
43894;DHT22;29556;50.846;4.442;2022-11-28T15:48:55;12.90;89.30
43894;DHT22;29556;50.846;4.442;2022-11-28T15:51:32;12.90;89.30
43894;DHT22;29556;50.846;4.442;2022-11-28T15:54:00;12.80;89.30
43894;DHT22;29556;50.846;4.442;2022-11-28T15:56:28;12.80;89.20
43894;DHT22;29556;50.846;4.442;2022-11-28T15:58:53;12.70;89.30
43894;DHT22;29556;50.846;4.442;2022-11-28T16:01:24;12.60;89.30
43894;DHT22;29556;50.846;4.442;2022-11-28T16:04:01;12.70;89.40
43894;DHT22;29556;50.846;4.442;2022-11-28T16:06:31;12.70;89.50
43894;DHT22;29556;50.846;4.442;2022-11-28T16:11:46;12.40;89.50
43894;DHT22;29556;50.846;4.442;2022-11-28T16:16:54;12.40;89.70
43894;DHT22;29556;50.846;4.442;2022-11-28T16:19:31;12.30;89.70
43894;DHT22;29556;50.846;4.442;2022-11-28T16:22:17;12.30;90.30
43894;DHT22;29556;50.846;4.442;2022-11-28T16:24:54;12.30;89.90
43894;DHT22;29556;50.846;4.442;2022-11-28T16:27:51;12.30;90.00
43894;DHT22;29556;50.846;4.442;2022-11-28T16:32:50;12.20;90.00
43894;DHT22;29556;50.846;4.442;2022-11-28T16:35:32;12.20;90.00
43894;DHT22;29556;50.846;4.442;2022-11-28T16:38:14;12.30;90.20
43894;DHT22;29556;50.846;4.442;2022-11-28T16:40:41;12.10;90.10
43894;DHT22;29556;50.846;4.442;2022-11-28T16:43:19;12.20;90.10
43894;DHT22;29556;50.846;4.442;2022-11-28T16:45:57;12.10;90.20
43894;DHT22;29556;50.846;4.442;2022-11-28T16:48:27;12.10;90.20
43894;DHT22;29556;50.846;4.442;2022-11-28T16:53:51;12.10;90.20
43894;DHT22;29556;50.846;4.442;2022-11-28T16:59:15;12.00;90.30
43894;DHT22;29556;50.846;4.442;2022-11-28T17:01:54;12.10;90.30
43894;DHT22;29556;50.846;4.442;2022-11-28T17:04:33;12.00;90.40
43894;DHT22;29556;50.846;4.442;2022-11-28T17:06:59;12.00;90.30
43894;DHT22;29556;50.846;4.442;2022-11-28T17:09:30;12.00;90.40
43894;DHT22;29556;50.846;4.442;2022-11-28T17:12:04;12.00;90.50
43894;DHT22;29556;50.846;4.442;2022-11-28T17:14:30;11.90;90.60
43894;DHT22;29556;50.846;4.442;2022-11-28T17:16:56;12.00;90.60
43894;DHT22;29556;50.846;4.442;2022-11-28T17:19:25;12.00;90.60
43894;DHT22;29556;50.846;4.442;2022-11-28T17:21:56;12.00;90.60
43894;DHT22;29556;50.846;4.442;2022-11-28T17:24:25;12.00;90.60
43894;DHT22;29556;50.846;4.442;2022-11-28T17:26:52;12.20;90.60
43894;DHT22;29556;50.846;4.442;2022-11-28T17:29:20;12.00;90.60
43894;DHT22;29556;50.846;4.442;2022-11-28T17:31:46;12.00;90.60
43894;DHT22;29556;50.846;4.442;2022-11-28T17:34:18;12.00;90.60
43894;DHT22;29556;50.846;4.442;2022-11-28T17:36:44;12.00;90.90
43894;DHT22;29556;50.846;4.442;2022-11-28T17:39:11;11.90;90.90
43894;DHT22;29556;50.846;4.442;2022-11-28T17:41:37;12.10;90.70
43894;DHT22;29556;50.846;4.442;2022-11-28T17:44:03;11.90;90.60
43894;DHT22;29556;50.846;4.442;2022-11-28T17:46:35;11.90;90.60
43894;DHT22;29556;50.846;4.442;2022-11-28T17:49:00;11.80;90.60
43894;DHT22;29556;50.846;4.442;2022-11-28T17:51:27;11.80;90.50
43894;DHT22;29556;50.846;4.442;2022-11-28T17:53:54;11.90;90.50
43894;DHT22;29556;50.846;4.442;2022-11-28T17:59:29;11.80;90.70
43894;DHT22;29556;50.846;4.442;2022-11-28T18:04:24;11.70;90.80
43894;DHT22;29556;50.846;4.442;2022-11-28T18:06:51;11.90;90.90
43894;DHT22;29556;50.846;4.442;2022-11-28T18:09:19;11.80;90.90
43894;DHT22;29556;50.846;4.442;2022-11-28T18:11:45;11.80;90.90
43894;DHT22;29556;50.846;4.442;2022-11-28T18:14:11;11.80;91.00
43894;DHT22;29556;50.846;4.442;2022-11-28T18:16:37;11.90;91.00
43894;DHT22;29556;50.846;4.442;2022-11-28T18:19:04;11.80;91.00
43894;DHT22;29556;50.846;4.442;2022-11-28T18:21:31;12.00;91.10
43894;DHT22;29556;50.846;4.442;2022-11-28T18:23:57;11.90;91.00
43894;DHT22;29556;50.846;4.442;2022-11-28T18:26:24;11.90;91.00
43894;DHT22;29556;50.846;4.442;2022-11-28T18:28:52;11.90;91.00
43894;DHT22;29556;50.846;4.442;2022-11-28T18:31:23;11.90;91.00
43894;DHT22;29556;50.846;4.442;2022-11-28T18:33:50;11.90;91.10
43894;DHT22;29556;50.846;4.442;2022-11-28T18:38:45;11.90;91.10
43894;DHT22;29556;50.846;4.442;2022-11-28T18:41:12;11.90;91.00
43894;DHT22;29556;50.846;4.442;2022-11-28T18:43:40;11.90;91.00
43894;DHT22;29556;50.846;4.442;2022-11-28T18:46:10;12.00;91.10
43894;DHT22;29556;50.846;4.442;2022-11-28T18:48:37;11.90;91.00
43894;DHT22;29556;50.846;4.442;2022-11-28T18:51:14;11.90;91.00
43894;DHT22;29556;50.846;4.442;2022-11-28T18:53:41;11.90;91.10
43894;DHT22;29556;50.846;4.442;2022-11-28T18:56:07;11.90;91.10
43894;DHT22;29556;50.846;4.442;2022-11-28T18:58:40;11.80;91.00
43894;DHT22;29556;50.846;4.442;2022-11-28T19:01:45;11.90;91.10
43894;DHT22;29556;50.846;4.442;2022-11-28T19:04:09;11.90;91.00
43894;DHT22;29556;50.846;4.442;2022-11-28T19:06:36;11.80;91.00
43894;DHT22;29556;50.846;4.442;2022-11-28T19:09:04;11.80;91.00
43894;DHT22;29556;50.846;4.442;2022-11-28T19:11:31;11.80;91.00
43894;DHT22;29556;50.846;4.442;2022-11-28T19:13:58;11.70;90.90
43894;DHT22;29556;50.846;4.442;2022-11-28T19:16:34;11.70;90.90
43894;DHT22;29556;50.846;4.442;2022-11-28T19:19:07;11.60;90.90